This is the latest recevied weather packets stored in our database for station/object HK6RM-17. If no packets are shown the sender has not sent any weather packets the latest 10 day(s).
| Time | Temp. | Humidity | Pressure | Rain* | Wind** | Luminosity | Snow |
|---|---|---|---|---|---|---|---|
| 1777916632 | 18.33° C | 81% | 1014 hPa | 0 mm | - | - | - |
| 1777916032 | 18.33° C | 82% | 1014 hPa | 0 mm | - | - | - |
| 1777915431 | 18.33° C | 83% | 1015 hPa | 0 mm | - | - | - |
| 1777914830 | 18.33° C | 84% | 1015 hPa | 0 mm | - | - | - |
| 1777914229 | 17.78° C | 86% | 1015 hPa | 0 mm | - | - | - |
| 1777913626 | 18.33° C | 85% | 1015 hPa | 0 mm | - | - | - |
| 1777913024 | 18.89° C | 86% | 1016 hPa | 0 mm | - | - | - |
| 1777912424 | 17.22° C | 88% | 1016 hPa | 0 mm | - | - | - |
| 1777911822 | 17.22° C | 88% | 1016 hPa | 0 mm | - | - | - |
| 1777911221 | 17.78° C | 87% | 1016 hPa | 0 mm | - | - | - |
| 1777910619 | 17.22° C | 89% | 1016 hPa | 0 mm | - | - | - |
| 1777910019 | 17.22° C | 89% | 1016 hPa | 0 mm | - | - | - |
| 1777909417 | 17.78° C | 89% | 1016 hPa | 0 mm | - | - | - |
| 1777908816 | 17.22° C | 91% | 1016 hPa | 0 mm | - | - | - |
| 1777908215 | 17.22° C | 91% | 1016 hPa | 0 mm | - | - | - |
| 1777907615 | 17.22° C | 89% | 1016 hPa | 0 mm | - | - | - |
| 1777907013 | 17.78° C | 88% | 1016 hPa | 0 mm | - | - | - |
| 1777906412 | 17.22° C | 91% | 1016 hPa | 0 mm | - | - | - |
| 1777905812 | 17.78° C | 90% | 1016 hPa | 0 mm | - | - | - |
| 1777905210 | 17.22° C | 96% | 1016 hPa | 0 mm | - | - | - |
| 1777904609 | 17.78° C | 92% | 1016 hPa | 0 mm | - | - | - |
| 1777904009 | 16.67° C | 10% | - | 0 mm | - | - | - |
| 1777903408 | 17.22° C | 10% | - | 0 mm | - | - | - |
| 1777902808 | 17.22° C | 10% | - | 0 mm | - | - | - |
| 1777902207 | 17.78° C | 10% | - | 0 mm | - | - | - |
* Rain latest hour (hover to see other rain measurements)
** Current wind speed in m/s (hover to see current wind gust speed)